Other Surface Observations
Issued by NWS Great Falls, MT

Home | Current Version | Previous Version | Text Only | Print | Product List | Glossary On
Versions: 1 2 3 4 5 6 7 8 9 10 11 12 13 14 15 16 17 18 19 20 21 22 23 24 25 26 27 28 29 30 31 32 33 34 35 36 37 38 39 40 41 42 43 44 45 46 47 48 49 50
193
SXUS55 KTFX 241205
OSOTFX

AREA AWOS OBSERVATIONS
NATIONAL WEATHER SERVICE GREAT FALLS MT
0505 AM MST Fri Nov 24 2017

METAR K7S0 241155Z AUTO 25003KT 40SM 03/M03 A2998 RMK A01 T00271027
METAR K7S0 241055Z AUTO 23002KT 40SM 05/M04 A2997 RMK A01 T00501038
METAR K97M 241055Z AUTO 30017KT 15SM 11/05 A2961 RMK A01 T01110050
METAR KRPX 241155Z AUTO 26015KT 40SM 08/M04 A2965 RMK A01 T00831038
METAR KRPX 241055Z AUTO  40SM 10/M01 A2961 RMK A01 T01001005
METAR KRPX 241055Z AUTO  40SM 10/M01 A2961 RMK A01 T01001005



USA.gov is the U.S. government's official web portal to all federal, state and local government web resources and services.